Time;durP1;ratioP1;P1;durP2;ratioP2;P2;SDS_P1;SDS_P2;PMS_P1;PMS_P2;Temp;Humidity;BMP_temperature;BMP_pressure;BME280_temperature;BME280_humidity;BME280_pressure;Samples;Min_cycle;Max_cycle;Signal;HPM_P1;HPM_P2
2021/04/09 00:01:58;;;;;;;25.05;2.90;;;;;;;;;;4996288;28;20512;-57
2021/04/09 00:04:25;;;;;;;12.48;2.35;;;;;;;;;;4997609;28;20027;-58
2021/04/09 00:06:53;;;;;;;25.45;3.65;;;;;;;;;;4992629;28;20502;-56
2021/04/09 00:09:20;;;;;;;36.25;4.10;;;;;;;;;;4996619;28;20025;-57
2021/04/09 00:11:47;;;;;;;34.92;4.30;;;;;;;;;;5006067;28;20041;-58
2021/04/09 00:14:15;;;;;;;44.92;4.88;;;;;;;;;;4999369;28;20504;-56
2021/04/09 00:16:43;;;;;;;32.63;4.35;;;;;;;;;;4996572;28;20556;-58
2021/04/09 00:19:16;;;;;;;37.15;4.55;;;;;;;;;;4995230;28;20030;-59
2021/04/09 00:21:44;;;;;;;38.97;4.65;;;;;;;;;;4995626;28;20033;-57
2021/04/09 00:24:12;;;;;;;34.97;4.40;;;;;;;;;;5000860;28;20374;-60
2021/04/09 00:26:40;;;;;;;42.78;4.35;;;;;;;;;;5009066;28;20038;-57
2021/04/09 00:29:07;;;;;;;42.63;4.53;;;;;;;;;;4993216;28;20118;-60
2021/04/09 00:31:34;;;;;;;41.08;3.85;;;;;;;;;;5011415;28;20050;-59
2021/04/09 00:34:02;;;;;;;27.58;4.00;;;;;;;;;;5011606;28;20046;-54
2021/04/09 00:36:29;;;;;;;40.58;4.72;;;;;;;;;;5015360;28;20300;-58
2021/04/09 00:38:56;;;;;;;25.00;3.70;;;;;;;;;;5010971;28;20104;-57
2021/04/09 00:41:23;;;;;;;19.65;3.50;;;;;;;;;;5004157;28;20022;-58
2021/04/09 00:43:50;;;;;;;21.85;3.30;;;;;;;;;;5000877;28;20030;-54
2021/04/09 00:46:17;;;;;;;22.08;3.13;;;;;;;;;;5002083;28;20480;-57
2021/04/09 00:48:44;;;;;;;21.52;2.83;;;;;;;;;;4999259;28;20026;-56
2021/04/09 00:51:11;;;;;;;16.00;2.80;;;;;;;;;;5002242;28;20038;-57
2021/04/09 00:53:40;;;;;;;8.52;2.58;;;;;;;;;;5010747;28;20026;-60
2021/04/09 00:56:07;;;;;;;16.70;3.50;;;;;;;;;;5012148;28;20149;-56
2021/04/09 00:58:34;;;;;;;16.13;2.58;;;;;;;;;;5009165;28;20029;-59
2021/04/09 01:01:02;;;;;;;14.10;2.63;;;;;;;;;;5011669;28;20501;-56
2021/04/09 01:03:29;;;;;;;9.73;2.72;;;;;;;;;;5008189;28;20038;-58
2021/04/09 01:05:56;;;;;;;12.02;2.85;;;;;;;;;;5008892;28;20048;-55
2021/04/09 01:08:23;;;;;;;11.52;2.67;;;;;;;;;;5011093;28;20072;-55
2021/04/09 01:10:50;;;;;;;9.40;2.92;;;;;;;;;;5009374;28;20042;-54
2021/04/09 01:13:17;;;;;;;7.57;2.70;;;;;;;;;;5001569;28;20018;-55
2021/04/09 01:15:45;;;;;;;12.43;3.00;;;;;;;;;;5009035;28;20037;-56
2021/04/09 01:18:24;;;;;;;7.30;2.10;;;;;;;;;;5009599;28;20026;-60
2021/04/09 01:20:59;;;;;;;6.32;2.10;;;;;;;;;;5010525;28;20061;-62
2021/04/09 01:23:26;;;;;;;9.77;1.92;;;;;;;;;;5006708;28;20046;-60
2021/04/09 01:26:08;;;;;;;10.57;2.20;;;;;;;;;;5001338;28;20101;-60
2021/04/09 01:28:35;;;;;;;7.88;2.08;;;;;;;;;;4995339;28;20156;-59
2021/04/09 01:31:20;;;;;;;7.13;1.83;;;;;;;;;;4996055;28;20042;-60
2021/04/09 01:33:49;;;;;;;7.00;2.00;;;;;;;;;;5000613;28;20026;-61
2021/04/09 01:36:19;;;;;;;4.78;1.70;;;;;;;;;;4996313;28;20398;-59
2021/04/09 01:38:49;;;;;;;14.10;1.90;;;;;;;;;;4998865;28;20402;-59
2021/04/09 01:41:16;;;;;;;5.78;1.50;;;;;;;;;;4997792;28;21369;-60
2021/04/09 01:43:43;;;;;;;6.78;1.48;;;;;;;;;;5000647;28;20026;-56
2021/04/09 01:46:12;;;;;;;4.15;1.05;;;;;;;;;;5005974;28;20094;-61
2021/04/09 01:48:41;;;;;;;8.32;1.45;;;;;;;;;;5008282;28;20025;-61
2021/04/09 01:51:13;;;;;;;11.48;1.08;;;;;;;;;;5001979;28;20494;-59
2021/04/09 01:53:41;;;;;;;8.13;1.30;;;;;;;;;;5007604;28;20076;-61
2021/04/09 01:56:09;;;;;;;6.30;1.00;;;;;;;;;;5006193;28;20022;-59
2021/04/09 01:58:37;;;;;;;7.53;1.23;;;;;;;;;;5005595;28;20018;-59
2021/04/09 02:01:05;;;;;;;3.90;1.25;;;;;;;;;;5009861;28;20176;-59
2021/04/09 02:03:32;;;;;;;8.60;1.70;;;;;;;;;;5005988;28;20025;-59
2021/04/09 02:05:59;;;;;;;8.63;1.20;;;;;;;;;;5007619;28;20080;-58
2021/04/09 02:08:26;;;;;;;12.50;2.00;;;;;;;;;;5003689;28;20027;-59
2021/04/09 02:10:57;;;;;;;11.13;1.98;;;;;;;;;;5007903;28;21603;-60
2021/04/09 02:13:25;;;;;;;6.07;1.40;;;;;;;;;;4998288;28;20026;-60
2021/04/09 02:15:56;;;;;;;4.43;1.15;;;;;;;;;;5002945;28;21090;-59
2021/04/09 02:18:26;;;;;;;6.82;1.45;;;;;;;;;;5006088;28;20029;-60
2021/04/09 02:20:54;;;;;;;6.97;1.30;;;;;;;;;;5007068;28;20018;-57
2021/04/09 02:23:21;;;;;;;8.05;1.42;;;;;;;;;;5009995;28;20041;-58
2021/04/09 02:25:47;;;;;;;3.38;1.02;;;;;;;;;;5005817;28;20535;-60
2021/04/09 02:28:15;;;;;;;8.43;1.38;;;;;;;;;;5010901;28;20375;-58
2021/04/09 02:30:42;;;;;;;9.45;1.80;;;;;;;;;;5013312;28;20045;-61
2021/04/09 02:33:09;;;;;;;7.28;1.60;;;;;;;;;;5016738;28;20021;-60
2021/04/09 02:35:36;;;;;;;5.50;1.45;;;;;;;;;;5013957;28;20172;-58
2021/04/09 02:38:03;;;;;;;6.50;1.35;;;;;;;;;;5032467;28;20060;-60
2021/04/09 02:40:35;;;;;;;7.70;1.45;;;;;;;;;;5033461;28;20538;-61
2021/04/09 02:43:02;;;;;;;5.13;1.30;;;;;;;;;;5033776;28;20093;-61
2021/04/09 02:45:29;;;;;;;7.57;1.17;;;;;;;;;;5032096;28;21038;-60
2021/04/09 02:47:58;;;;;;;7.47;1.90;;;;;;;;;;5033458;28;20388;-61
2021/04/09 02:50:33;;;;;;;9.98;1.30;;;;;;;;;;5033515;28;20036;-60
2021/04/09 02:53:08;;;;;;;6.10;1.08;;;;;;;;;;5033571;28;20029;-59
2021/04/09 02:55:37;;;;;;;6.72;1.00;;;;;;;;;;5033544;28;20025;-59
2021/04/09 02:58:06;;;;;;;5.53;1.27;;;;;;;;;;5032930;28;20432;-59
2021/04/09 03:00:35;;;;;;;4.97;1.58;;;;;;;;;;5033575;28;20030;-59
2021/04/09 03:03:02;;;;;;;4.85;1.00;;;;;;;;;;5007355;28;20048;-59
2021/04/09 03:05:29;;;;;;;3.90;1.20;;;;;;;;;;5013211;28;20030;-59
2021/04/09 03:07:56;;;;;;;5.97;1.02;;;;;;;;;;5013638;28;20032;-59
2021/04/09 03:10:24;;;;;;;4.35;1.00;;;;;;;;;;5013330;28;20113;-59
2021/04/09 03:12:51;;;;;;;3.45;1.17;;;;;;;;;;5009074;28;20140;-58
2021/04/09 03:15:20;;;;;;;3.80;1.10;;;;;;;;;;5012607;28;20026;-59
2021/04/09 03:17:53;;;;;;;2.70;0.90;;;;;;;;;;5013565;28;20026;-59
2021/04/09 03:20:21;;;;;;;3.28;1.05;;;;;;;;;;5011797;28;20128;-59
2021/04/09 03:22:48;;;;;;;3.60;0.80;;;;;;;;;;5011195;28;20025;-59
2021/04/09 03:25:15;;;;;;;2.05;0.80;;;;;;;;;;5009840;28;20041;-59
2021/04/09 03:27:42;;;;;;;1.77;0.90;;;;;;;;;;5013610;28;20466;-59
2021/04/09 03:30:10;;;;;;;2.90;0.93;;;;;;;;;;5012955;28;20708;-59
2021/04/09 03:32:37;;;;;;;1.58;0.68;;;;;;;;;;5012751;28;20034;-56
2021/04/09 03:35:04;;;;;;;3.50;0.85;;;;;;;;;;5008408;28;20025;-51
2021/04/09 03:37:31;;;;;;;1.13;0.60;;;;;;;;;;5013369;28;20045;-55
2021/04/09 03:39:58;;;;;;;0.88;0.55;;;;;;;;;;5013030;28;20022;-57
2021/04/09 03:42:25;;;;;;;1.65;0.52;;;;;;;;;;5013360;28;20021;-57
2021/04/09 03:44:52;;;;;;;1.60;0.65;;;;;;;;;;5008085;28;20034;-57
2021/04/09 03:47:19;;;;;;;1.25;0.50;;;;;;;;;;5012685;28;20025;-57
2021/04/09 03:49:46;;;;;;;3.13;0.57;;;;;;;;;;5013084;28;20036;-63
2021/04/09 03:52:13;;;;;;;2.05;0.57;;;;;;;;;;5012872;28;20030;-58
2021/04/09 03:54:40;;;;;;;0.95;0.40;;;;;;;;;;5007741;28;20026;-58
2021/04/09 03:57:07;;;;;;;1.40;0.40;;;;;;;;;;5013166;28;20026;-60
2021/04/09 03:59:35;;;;;;;1.40;0.35;;;;;;;;;;5012942;28;20097;-58
2021/04/09 04:02:02;;;;;;;3.85;0.30;;;;;;;;;;5012690;28;20022;-58
2021/04/09 04:04:29;;;;;;;3.28;0.63;;;;;;;;;;5007969;28;20466;-59
2021/04/09 04:06:56;;;;;;;1.45;0.40;;;;;;;;;;5013043;28;20524;-58
2021/04/09 04:09:26;;;;;;;1.23;0.40;;;;;;;;;;5012428;28;20026;-55
2021/04/09 04:11:53;;;;;;;1.33;0.40;;;;;;;;;;5012560;28;20477;-58
2021/04/09 04:14:20;;;;;;;1.38;0.40;;;;;;;;;;5008956;28;20101;-56
2021/04/09 04:16:47;;;;;;;0.40;0.20;;;;;;;;;;5011493;28;20064;-56
2021/04/09 04:19:16;;;;;;;1.80;0.30;;;;;;;;;;5012891;28;20101;-56
2021/04/09 04:21:43;;;;;;;5.20;0.43;;;;;;;;;;5012457;28;20022;-57
2021/04/09 04:24:10;;;;;;;0.70;0.50;;;;;;;;;;5011371;28;20554;-54
2021/04/09 04:26:37;;;;;;;1.85;0.43;;;;;;;;;;5008916;28;20021;-58
2021/04/09 04:29:04;;;;;;;1.25;0.30;;;;;;;;;;5012796;28;20026;-57
2021/04/09 04:31:31;;;;;;;0.60;0.30;;;;;;;;;;5012152;28;20064;-57
2021/04/09 04:33:58;;;;;;;2.15;0.40;;;;;;;;;;5012535;28;20034;-57
2021/04/09 04:36:26;;;;;;;2.15;0.38;;;;;;;;;;5007589;28;20026;-57
2021/04/09 04:38:53;;;;;;;0.68;0.40;;;;;;;;;;5012419;28;20029;-57
2021/04/09 04:41:20;;;;;;;1.80;0.50;;;;;;;;;;5012451;28;20028;-57
2021/04/09 04:43:47;;;;;;;3.15;0.50;;;;;;;;;;5012282;28;20021;-56
2021/04/09 04:46:14;;;;;;;4.32;0.60;;;;;;;;;;5007257;28;20378;-57
2021/04/09 04:48:41;;;;;;;2.95;0.57;;;;;;;;;;5012695;28;20029;-57
2021/04/09 04:51:08;;;;;;;0.65;0.43;;;;;;;;;;5012154;28;20049;-57
2021/04/09 04:53:36;;;;;;;0.73;0.60;;;;;;;;;;5012174;28;20030;-56
2021/04/09 04:56:03;;;;;;;1.17;0.35;;;;;;;;;;5007391;28;20033;-57
2021/04/09 04:58:30;;;;;;;3.00;0.70;;;;;;;;;;5012648;28;20482;-57
2021/04/09 05:00:57;;;;;;;0.90;0.40;;;;;;;;;;5012441;28;20481;-57
2021/04/09 05:03:24;;;;;;;2.42;0.70;;;;;;;;;;5011826;28;20117;-56
2021/04/09 05:05:51;;;;;;;1.15;0.68;;;;;;;;;;5007534;28;20116;-57
2021/04/09 05:08:18;;;;;;;2.58;0.60;;;;;;;;;;5011826;28;20033;-57
2021/04/09 05:10:45;;;;;;;1.25;0.47;;;;;;;;;;5012306;28;20065;-57
2021/04/09 05:13:12;;;;;;;1.63;0.45;;;;;;;;;;5012048;28;20018;-56
2021/04/09 05:15:39;;;;;;;2.47;0.75;;;;;;;;;;5009366;28;20026;-57
2021/04/09 05:18:06;;;;;;;1.67;0.60;;;;;;;;;;5008624;28;20025;-57
2021/04/09 05:20:33;;;;;;;0.70;0.43;;;;;;;;;;5008687;28;20049;-57
2021/04/09 05:23:00;;;;;;;1.55;0.50;;;;;;;;;;5014558;28;20026;-53
2021/04/09 05:25:27;;;;;;;0.82;0.35;;;;;;;;;;5013012;28;20060;-57
2021/04/09 05:27:54;;;;;;;2.05;0.40;;;;;;;;;;5010533;28;20417;-57
2021/04/09 05:30:22;;;;;;;1.10;0.30;;;;;;;;;;5015381;28;20088;-57
2021/04/09 05:32:49;;;;;;;0.85;0.32;;;;;;;;;;5014873;28;20105;-54
2021/04/09 05:35:17;;;;;;;1.95;0.40;;;;;;;;;;5015388;28;20021;-57
2021/04/09 05:37:44;;;;;;;1.58;0.40;;;;;;;;;;5010330;28;20026;-57
2021/04/09 05:40:12;;;;;;;1.25;0.50;;;;;;;;;;5015584;28;20060;-58
2021/04/09 05:42:39;;;;;;;2.50;0.43;;;;;;;;;;5015326;28;20072;-55
2021/04/09 05:45:06;;;;;;;1.55;0.60;;;;;;;;;;5015239;28;20552;-57
2021/04/09 05:47:33;;;;;;;2.63;0.50;;;;;;;;;;5010106;28;20030;-54
2021/04/09 05:50:00;;;;;;;2.33;0.63;;;;;;;;;;5015221;28;20041;-57
2021/04/09 05:52:27;;;;;;;0.77;0.35;;;;;;;;;;5015146;28;20084;-57
2021/04/09 05:54:54;;;;;;;0.50;0.40;;;;;;;;;;5014806;28;20363;-56
2021/04/09 05:57:21;;;;;;;0.95;0.30;;;;;;;;;;5010676;28;20053;-57
2021/04/09 05:59:48;;;;;;;0.73;0.35;;;;;;;;;;5014834;28;20022;-56
2021/04/09 06:02:15;;;;;;;0.73;0.38;;;;;;;;;;5014387;28;20064;-57
2021/04/09 06:04:42;;;;;;;0.50;0.40;;;;;;;;;;5014773;28;20018;-57
2021/04/09 06:07:09;;;;;;;1.08;0.40;;;;;;;;;;5010510;28;20486;-56
2021/04/09 06:09:36;;;;;;;2.47;0.50;;;;;;;;;;5014699;28;20021;-55
2021/04/09 06:12:03;;;;;;;1.23;0.50;;;;;;;;;;5015009;28;20117;-56
2021/04/09 06:14:30;;;;;;;3.28;0.60;;;;;;;;;;5014592;28;20032;-56
2021/04/09 06:16:58;;;;;;;0.80;0.40;;;;;;;;;;5012837;28;20038;-55
2021/04/09 06:19:25;;;;;;;1.38;0.50;;;;;;;;;;5011612;28;20030;-59
2021/04/09 06:21:52;;;;;;;1.70;0.52;;;;;;;;;;5014582;28;20040;-59
2021/04/09 06:24:19;;;;;;;2.35;0.70;;;;;;;;;;5014348;28;20071;-59
2021/04/09 06:26:46;;;;;;;1.35;0.55;;;;;;;;;;5014512;28;20060;-59
2021/04/09 06:29:13;;;;;;;1.05;0.50;;;;;;;;;;5009414;28;20029;-59
2021/04/09 06:31:41;;;;;;;1.20;0.60;;;;;;;;;;5014140;28;20041;-59
2021/04/09 06:34:08;;;;;;;1.13;0.50;;;;;;;;;;5014284;28;20029;-57
2021/04/09 06:36:35;;;;;;;1.20;0.47;;;;;;;;;;5014407;28;20022;-56
2021/04/09 06:39:02;;;;;;;4.07;0.65;;;;;;;;;;5008192;28;20029;-55
2021/04/09 06:41:29;;;;;;;1.92;0.63;;;;;;;;;;5014261;28;20040;-56
2021/04/09 06:43:56;;;;;;;3.25;0.57;;;;;;;;;;5014353;28;20389;-57
2021/04/09 06:46:23;;;;;;;1.27;0.50;;;;;;;;;;5013861;28;20047;-55
2021/04/09 06:48:50;;;;;;;2.17;0.60;;;;;;;;;;5009205;28;20588;-57
2021/04/09 06:51:17;;;;;;;1.30;0.65;;;;;;;;;;5013763;28;20041;-57
2021/04/09 06:53:53;;;;;;;1.35;0.57;;;;;;;;;;5013876;28;20056;-58
2021/04/09 06:56:22;;;;;;;4.28;0.70;;;;;;;;;;5013802;28;20026;-56
2021/04/09 06:58:49;;;;;;;3.63;0.80;;;;;;;;;;5009191;28;20018;-57
2021/04/09 07:01:17;;;;;;;2.50;0.63;;;;;;;;;;5013427;28;20485;-50
2021/04/09 07:03:44;;;;;;;3.10;0.57;;;;;;;;;;5012312;28;20539;-56
2021/04/09 07:06:11;;;;;;;4.05;0.63;;;;;;;;;;5013856;28;20054;-56
2021/04/09 07:08:42;;;;;;;2.53;0.70;;;;;;;;;;5008870;28;20036;-56
2021/04/09 07:11:09;;;;;;;6.85;1.02;;;;;;;;;;5013196;28;20038;-55
2021/04/09 07:13:53;;;;;;;0.80;0.60;;;;;;;;;;5013821;28;20032;-57
2021/04/09 07:16:20;;;;;;;3.70;0.90;;;;;;;;;;5013311;28;20030;-56
2021/04/09 07:18:53;;;;;;;1.63;0.70;;;;;;;;;;5009343;28;20533;-55
2021/04/09 07:21:25;;;;;;;4.53;0.90;;;;;;;;;;4993415;28;20435;-57
2021/04/09 07:24:12;;;;;;;2.33;0.70;;;;;;;;;;4993633;28;20096;-56
2021/04/09 07:26:40;;;;;;;2.72;0.82;;;;;;;;;;4993424;28;20478;-56
2021/04/09 07:29:07;;;;;;;1.95;0.80;;;;;;;;;;4994531;28;20441;-56
2021/04/09 07:31:34;;;;;;;2.80;1.00;;;;;;;;;;5012823;28;20041;-53
2021/04/09 07:34:01;;;;;;;1.90;0.75;;;;;;;;;;5013313;28;20358;-53
2021/04/09 07:36:29;;;;;;;1.38;0.80;;;;;;;;;;5013393;28;20026;-57
2021/04/09 07:38:56;;;;;;;2.03;0.90;;;;;;;;;;5011174;28;20037;-57
2021/04/09 07:41:23;;;;;;;1.92;0.98;;;;;;;;;;5010145;28;20021;-57
2021/04/09 07:43:50;;;;;;;2.00;0.90;;;;;;;;;;5011476;28;20045;-57
2021/04/09 07:46:24;;;;;;;5.00;1.00;;;;;;;;;;5013078;28;20105;-57
2021/04/09 07:49:02;;;;;;;2.00;0.90;;;;;;;;;;5013077;28;20026;-56
2021/04/09 07:51:29;;;;;;;2.15;0.80;;;;;;;;;;5009009;28;20034;-56
2021/04/09 07:54:08;;;;;;;2.42;1.13;;;;;;;;;;5012856;28;20018;-57
2021/04/09 07:56:45;;;;;;;1.48;0.80;;;;;;;;;;5013142;28;20412;-57
2021/04/09 07:59:13;;;;;;;1.73;0.70;;;;;;;;;;5012626;28;20045;-57
2021/04/09 08:01:49;;;;;;;2.45;0.90;;;;;;;;;;5008629;28;20030;-55
2021/04/09 08:04:16;;;;;;;3.70;1.10;;;;;;;;;;5012700;28;20021;-56
2021/04/09 08:06:43;;;;;;;2.35;1.00;;;;;;;;;;5012645;28;20429;-57
2021/04/09 08:09:11;;;;;;;1.70;1.15;;;;;;;;;;5012594;28;20389;-52
2021/04/09 08:11:39;;;;;;;1.48;0.75;;;;;;;;;;5008042;28;20080;-52
2021/04/09 08:14:10;;;;;;;1.20;0.80;;;;;;;;;;5012539;28;20097;-54
2021/04/09 08:16:37;;;;;;;2.97;1.10;;;;;;;;;;5012774;28;20448;-55
2021/04/09 08:19:09;;;;;;;1.88;1.10;;;;;;;;;;5012408;28;20029;-56
2021/04/09 08:21:50;;;;;;;2.08;0.90;;;;;;;;;;5007961;28;20072;-56
2021/04/09 08:24:18;;;;;;;3.07;1.00;;;;;;;;;;5012256;28;20057;-54
2021/04/09 08:26:45;;;;;;;1.58;0.68;;;;;;;;;;5012588;28;20025;-56
2021/04/09 08:29:13;;;;;;;4.60;0.90;;;;;;;;;;5012524;28;20088;-51
2021/04/09 08:31:41;;;;;;;1.65;0.90;;;;;;;;;;5007573;28;20046;-54
2021/04/09 08:34:09;;;;;;;3.75;1.10;;;;;;;;;;5012525;28;20056;-56
2021/04/09 08:36:40;;;;;;;1.55;0.88;;;;;;;;;;5012553;28;20540;-57
2021/04/09 08:39:11;;;;;;;2.97;0.88;;;;;;;;;;5012433;28;20485;-55
2021/04/09 08:41:42;;;;;;;1.90;1.10;;;;;;;;;;5007763;28;20037;-56
2021/04/09 08:44:10;;;;;;;1.08;0.80;;;;;;;;;;5012468;28;20014;-56
2021/04/09 08:46:38;;;;;;;1.67;1.00;;;;;;;;;;5012202;28;20056;-56
2021/04/09 08:49:06;;;;;;;1.05;0.80;;;;;;;;;;5012330;28;20022;-59
2021/04/09 08:51:34;;;;;;;2.72;0.98;;;;;;;;;;5007844;28;20045;-59
2021/04/09 08:54:17;;;;;;;1.13;0.95;;;;;;;;;;5012184;28;20049;-58
2021/04/09 08:56:44;;;;;;;2.17;0.80;;;;;;;;;;5016203;28;20026;-59
2021/04/09 08:59:11;;;;;;;1.42;0.88;;;;;;;;;;5015790;28;20014;-59
2021/04/09 09:01:39;;;;;;;3.45;0.88;;;;;;;;;;5011446;28;20570;-59
2021/04/09 09:04:29;;;;;;;2.95;0.85;;;;;;;;;;5015634;28;20034;-58
2021/04/09 09:06:56;;;;;;;2.35;1.00;;;;;;;;;;5012987;28;20084;-57
2021/04/09 09:09:35;;;;;;;3.92;1.00;;;;;;;;;;5015735;28;20405;-57
2021/04/09 09:12:02;;;;;;;1.25;1.00;;;;;;;;;;5010997;28;20201;-56
2021/04/09 09:14:35;;;;;;;4.75;1.00;;;;;;;;;;5015625;28;20363;-59
2021/04/09 09:17:21;;;;;;;2.55;1.10;;;;;;;;;;5014601;28;20041;-60
2021/04/09 09:19:49;;;;;;;0.98;0.70;;;;;;;;;;5015598;28;20100;-58
2021/04/09 09:22:20;;;;;;;2.22;0.80;;;;;;;;;;5010698;28;20018;-58
2021/04/09 09:25:02;;;;;;;2.70;1.00;;;;;;;;;;5015191;28;20049;-60
2021/04/09 09:27:47;;;;;;;1.30;0.90;;;;;;;;;;5015684;28;20026;-59
2021/04/09 09:30:32;;;;;;;2.83;1.10;;;;;;;;;;5015303;28;20540;-60
2021/04/09 09:33:17;;;;;;;1.23;1.00;;;;;;;;;;5010634;28;20034;-58
2021/04/09 09:36:00;;;;;;;4.82;1.20;;;;;;;;;;5015260;28;20481;-60
2021/04/09 09:38:45;;;;;;;2.67;0.90;;;;;;;;;;5015302;28;20044;-60
2021/04/09 09:41:32;;;;;;;1.73;0.93;;;;;;;;;;5014801;28;20022;-60
2021/04/09 09:44:00;;;;;;;1.50;0.80;;;;;;;;;;5010772;28;20030;-59
2021/04/09 09:46:45;;;;;;;1.42;0.80;;;;;;;;;;5015154;28;20026;-60
2021/04/09 09:49:12;;;;;;;2.08;0.85;;;;;;;;;;5015231;28;20116;-60
2021/04/09 09:51:39;;;;;;;3.85;0.90;;;;;;;;;;5014871;28;20060;-59
2021/04/09 09:54:06;;;;;;;3.15;0.80;;;;;;;;;;5010535;28;20104;-58
2021/04/09 09:56:33;;;;;;;4.00;0.93;;;;;;;;;;5015021;28;20033;-60
2021/04/09 09:59:00;;;;;;;1.63;0.80;;;;;;;;;;5014956;28;20120;-54
2021/04/09 10:01:27;;;;;;;3.50;0.70;;;;;;;;;;5014430;28;20025;-61
2021/04/09 10:03:55;;;;;;;8.10;0.73;;;;;;;;;;5010200;28;20381;-60
2021/04/09 10:06:28;;;;;;;3.00;1.42;;;;;;;;;;5013922;28;20026;-59
2021/04/09 10:08:55;;;;;;;4.13;0.82;;;;;;;;;;5014889;28;20021;-59
2021/04/09 10:11:23;;;;;;;2.65;0.90;;;;;;;;;;5014657;28;20038;-57
2021/04/09 10:13:51;;;;;;;3.55;0.80;;;;;;;;;;5010068;28;20107;-60
2021/04/09 10:16:19;;;;;;;1.25;0.95;;;;;;;;;;5014409;28;20034;-58
2021/04/09 10:18:53;;;;;;;1.38;0.75;;;;;;;;;;5014711;28;20022;-58
2021/04/09 10:21:40;;;;;;;1.05;0.80;;;;;;;;;;5014586;28;20034;-58
2021/04/09 10:24:07;;;;;;;2.67;0.80;;;;;;;;;;5009828;28;20069;-58
2021/04/09 10:26:35;;;;;;;4.22;0.88;;;;;;;;;;5014360;28;20037;-52
2021/04/09 10:29:03;;;;;;;4.43;0.80;;;;;;;;;;5014418;28;20026;-56
2021/04/09 10:31:30;;;;;;;0.88;0.70;;;;;;;;;;5014100;28;20033;-58
2021/04/09 10:33:59;;;;;;;0.75;0.60;;;;;;;;;;5009539;28;20354;-53
2021/04/09 10:36:31;;;;;;;3.30;0.75;;;;;;;;;;5014336;28;20026;-58
2021/04/09 10:38:58;;;;;;;2.03;0.90;;;;;;;;;;5013945;28;20747;-58
2021/04/09 10:41:45;;;;;;;1.42;0.68;;;;;;;;;;5014147;28;20026;-58
2021/04/09 10:44:17;;;;;;;1.65;0.82;;;;;;;;;;5005591;28;20065;-56
2021/04/09 10:46:44;;;;;;;;;;;;;;;;;;5014564;28;20106;-56
2021/04/09 10:49:15;;;;;;;2.40;0.85;;;;;;;;;;5013915;28;19905;-58
2021/04/09 10:51:47;;;;;;;2.30;1.08;;;;;;;;;;5013767;28;20044;-56
2021/04/09 10:54:26;;;;;;;2.25;1.00;;;;;;;;;;5009377;28;20030;-57
2021/04/09 10:56:54;;;;;;;1.88;0.63;;;;;;;;;;5013888;28;20097;-57
2021/04/09 10:59:25;;;;;;;2.75;0.80;;;;;;;;;;5012561;28;20382;-56
2021/04/09 11:01:52;;;;;;;4.63;0.90;;;;;;;;;;5014510;28;20439;-62
2021/04/09 11:04:19;;;;;;;3.08;0.90;;;;;;;;;;5008785;28;20594;-56
2021/04/09 11:06:53;;;;;;;1.42;0.80;;;;;;;;;;5013552;28;20034;-51
2021/04/09 11:09:20;;;;;;;2.92;0.85;;;;;;;;;;5003878;28;20026;-53
2021/04/09 11:11:48;;;;;;;2.35;1.27;;;;;;;;;;5010320;28;20033;-53
2021/04/09 11:14:19;;;;;;;2.60;0.85;;;;;;;;;;5010165;28;20416;-53
2021/04/09 11:16:55;;;;;;;2.30;0.90;;;;;;;;;;5011793;28;20084;-54
2021/04/09 11:19:31;;;;;;;6.38;0.80;;;;;;;;;;5011035;28;20955;-54
2021/04/09 11:22:00;;;;;;;25.15;2.10;;;;;;;;;;5001051;28;20057;-57
2021/04/09 11:24:30;;;;;;;10.30;1.63;;;;;;;;;;4999977;28;20085;-46
2021/04/09 11:26:58;;;;;;;205.93;16.92;;;;;;;;;;5008376;28;20033;-51
2021/04/09 11:29:28;;;;;;;24.13;2.67;;;;;;;;;;5008665;28;20077;-46
2021/04/09 11:32:27;;;;;;;9.27;1.50;;;;;;;;;;4993672;28;20038;-46
2021/04/09 11:34:54;;;;;;;12.98;1.88;;;;;;;;;;4981756;28;20105;-46
2021/04/09 11:37:21;;;;;;;8.82;1.45;;;;;;;;;;5002121;28;20029;-46
2021/04/09 11:39:52;;;;;;;26.20;2.70;;;;;;;;;;4993667;28;20481;-48
2021/04/09 11:42:29;;;;;;;23.98;2.83;;;;;;;;;;5004798;28;20377;-50
2021/04/09 11:44:57;;;;;;;8.77;1.52;;;;;;;;;;5008638;28;20037;-48
2021/04/09 11:47:29;;;;;;;6.32;1.20;;;;;;;;;;4998444;28;20501;-45
2021/04/09 11:50:04;;;;;;;3.33;1.10;;;;;;;;;;5002920;28;20028;-55
2021/04/09 11:52:32;;;;;;;16.23;1.42;;;;;;;;;;4997696;28;20269;-46
2021/04/09 11:54:59;;;;;;;13.50;2.03;;;;;;;;;;5000218;28;20470;-46
2021/04/09 11:57:31;;;;;;;23.42;3.35;;;;;;;;;;4997018;28;20500;-45
2021/04/09 11:59:58;;;;;;;12.38;2.10;;;;;;;;;;4996539;28;20018;-47
2021/04/09 12:02:28;;;;;;;10.52;2.13;;;;;;;;;;5001987;28;20124;-48
2021/04/09 12:04:56;;;;;;;13.80;1.83;;;;;;;;;;5009235;28;20029;-51
2021/04/09 12:07:27;;;;;;;34.38;3.63;;;;;;;;;;5001319;28;20022;-59
2021/04/09 12:09:58;;;;;;;19.27;2.00;;;;;;;;;;5009497;28;20068;-57
2021/04/09 12:12:25;;;;;;;12.63;1.63;;;;;;;;;;5012029;28;20362;-47
2021/04/09 12:14:53;;;;;;;11.73;1.60;;;;;;;;;;5011831;28;20041;-46
2021/04/09 12:17:22;;;;;;;10.60;1.70;;;;;;;;;;4999302;28;20041;-48
2021/04/09 12:19:50;;;;;;;15.73;1.70;;;;;;;;;;4992306;28;20101;-56
2021/04/09 12:22:17;;;;;;;16.75;1.92;;;;;;;;;;5006259;28;20060;-51
2021/04/09 12:24:44;;;;;;;15.15;1.90;;;;;;;;;;4999107;28;20528;-48
2021/04/09 12:27:12;;;;;;;11.80;1.77;;;;;;;;;;5006229;28;20022;-47
2021/04/09 12:29:40;;;;;;;13.80;1.00;;;;;;;;;;5001272;28;20029;-47
2021/04/09 12:32:07;;;;;;;5.82;0.90;;;;;;;;;;5003132;28;20038;-56
2021/04/09 12:34:35;;;;;;;5.28;0.63;;;;;;;;;;5014564;28;20017;-50
2021/04/09 12:37:03;;;;;;;4.05;0.80;;;;;;;;;;5010865;28;20482;-49
2021/04/09 12:39:30;;;;;;;5.88;0.80;;;;;;;;;;5007137;28;20466;-46
2021/04/09 12:41:57;;;;;;;12.15;0.90;;;;;;;;;;5004121;28;20025;-53
2021/04/09 12:44:24;;;;;;;8.40;0.93;;;;;;;;;;5002456;28;20053;-57
2021/04/09 12:46:52;;;;;;;5.70;1.00;;;;;;;;;;5004494;28;20029;-50
2021/04/09 12:49:20;;;;;;;6.45;0.90;;;;;;;;;;5014691;28;20089;-51
2021/04/09 12:54:50;;;;;;;5.18;0.88;;;;;;;;;;5012163;28;20044;-54
2021/04/09 12:57:18;;;;;;;6.05;0.80;;;;;;;;;;5015110;28;20433;-61
2021/04/09 12:59:45;;;;;;;8.75;1.20;;;;;;;;;;5000684;28;20031;-52
2021/04/09 13:02:12;;;;;;;7.78;0.88;;;;;;;;;;5004131;28;20114;-48
2021/04/09 13:04:39;;;;;;;2.05;0.65;;;;;;;;;;5015422;28;20025;-59
2021/04/09 13:07:06;;;;;;;4.38;0.80;;;;;;;;;;5014263;28;20061;-58
2021/04/09 13:09:33;;;;;;;3.47;0.88;;;;;;;;;;5014819;28;20025;-48
2021/04/09 13:12:00;;;;;;;6.20;1.08;;;;;;;;;;5015537;28;20058;-59
2021/04/09 13:14:27;;;;;;;8.13;1.20;;;;;;;;;;5011463;28;20077;-51
2021/04/09 13:16:56;;;;;;;2.95;0.93;;;;;;;;;;4997357;28;20110;-49
2021/04/09 13:19:24;;;;;;;2.20;0.70;;;;;;;;;;5008088;28;20140;-49
2021/04/09 13:21:51;;;;;;;4.45;0.85;;;;;;;;;;5008922;28;20393;-54
2021/04/09 13:24:18;;;;;;;7.05;0.80;;;;;;;;;;4999513;28;20113;-45
2021/04/09 13:26:45;;;;;;;7.93;0.90;;;;;;;;;;5004164;28;20478;-55
2021/04/09 13:29:12;;;;;;;9.32;1.15;;;;;;;;;;5011909;28;20068;-53
2021/04/09 13:31:39;;;;;;;10.80;1.13;;;;;;;;;;5013022;28;20049;-48
2021/04/09 13:34:06;;;;;;;14.25;1.63;;;;;;;;;;5009740;28;20029;-51
2021/04/09 13:36:33;;;;;;;12.25;0.85;;;;;;;;;;5013719;28;20026;-50
2021/04/09 13:39:00;;;;;;;4.80;0.73;;;;;;;;;;5010011;28;20058;-51
2021/04/09 13:41:27;;;;;;;8.43;0.95;;;;;;;;;;4998752;28;20373;-58
2021/04/09 13:43:54;;;;;;;5.43;0.90;;;;;;;;;;5011961;28;20080;-53
2021/04/09 13:46:22;;;;;;;3.80;0.55;;;;;;;;;;5008938;28;20076;-53
2021/04/09 13:48:49;;;;;;;7.55;0.93;;;;;;;;;;5014318;28;20102;-54
2021/04/09 13:51:16;;;;;;;4.22;0.77;;;;;;;;;;5014172;28;20033;-54
2021/04/09 13:53:43;;;;;;;3.28;0.57;;;;;;;;;;5014351;28;20036;-59
2021/04/09 13:56:11;;;;;;;3.40;0.77;;;;;;;;;;5008638;28;20022;-56
2021/04/09 13:58:38;;;;;;;3.45;0.60;;;;;;;;;;5012289;28;20072;-58
2021/04/09 14:01:05;;;;;;;4.13;0.50;;;;;;;;;;5013270;28;20025;-52
2021/04/09 14:03:32;;;;;;;2.28;0.68;;;;;;;;;;5013692;28;20501;-53
2021/04/09 14:05:59;;;;;;;1.83;0.60;;;;;;;;;;5014423;28;20488;-52
2021/04/09 14:08:26;;;;;;;7.50;0.70;;;;;;;;;;5007773;28;20029;-51
2021/04/09 14:10:53;;;;;;;2.25;0.60;;;;;;;;;;5008177;28;20080;-48
2021/04/09 14:13:23;;;;;;;4.53;1.05;;;;;;;;;;5009827;28;20038;-50
2021/04/09 14:15:50;;;;;;;5.75;0.57;;;;;;;;;;5013740;28;20018;-52
2021/04/09 14:18:17;;;;;;;3.35;0.60;;;;;;;;;;5006695;28;20034;-49
2021/04/09 14:20:45;;;;;;;1.67;0.60;;;;;;;;;;5012187;28;20022;-48
2021/04/09 14:23:12;;;;;;;0.73;0.30;;;;;;;;;;5013501;28;20041;-48
2021/04/09 14:25:39;;;;;;;1.73;0.40;;;;;;;;;;5013620;28;20030;-52
2021/04/09 14:28:06;;;;;;;1.55;0.47;;;;;;;;;;5002981;28;20030;-52
2021/04/09 14:30:33;;;;;;;4.47;0.73;;;;;;;;;;5006617;28;20026;-48
2021/04/09 14:33:00;;;;;;;2.05;0.55;;;;;;;;;;5012024;28;20026;-48
2021/04/09 14:35:27;;;;;;;4.50;0.70;;;;;;;;;;5013692;28;20421;-47
2021/04/09 14:37:54;;;;;;;3.67;0.60;;;;;;;;;;5009083;28;20033;-48
2021/04/09 14:40:22;;;;;;;2.20;0.50;;;;;;;;;;5013264;28;20339;-49
2021/04/09 14:42:50;;;;;;;3.17;0.40;;;;;;;;;;5010605;28;20414;-49
2021/04/09 14:45:19;;;;;;;1.63;0.45;;;;;;;;;;5001725;28;20041;-51
2021/04/09 14:47:46;;;;;;;3.78;0.50;;;;;;;;;;5008704;28;20026;-50
2021/04/09 14:50:14;;;;;;;1.60;0.40;;;;;;;;;;5001136;28;20382;-49
2021/04/09 14:52:41;;;;;;;5.50;0.47;;;;;;;;;;5013373;28;20477;-48
2021/04/09 14:55:09;;;;;;;2.28;0.60;;;;;;;;;;5009353;28;20025;-47